sensor_id;sensor_type;location;lat;lon;timestamp;P1;durP1;ratioP1;P2;durP2;ratioP2
22068;SDS011;13887;57.196;-2.100;2022-08-20T00:01:03;13.20;;;12.50;;
22068;SDS011;13887;57.196;-2.100;2022-08-20T00:03:32;12.60;;;12.00;;
22068;SDS011;13887;57.196;-2.100;2022-08-20T00:06:04;12.50;;;12.00;;
22068;SDS011;13887;57.196;-2.100;2022-08-20T00:08:36;12.90;;;12.30;;
22068;SDS011;13887;57.196;-2.100;2022-08-20T00:11:05;12.93;;;12.10;;
22068;SDS011;13887;57.196;-2.100;2022-08-20T00:13:35;12.40;;;11.90;;
22068;SDS011;13887;57.196;-2.100;2022-08-20T00:16:06;13.03;;;12.40;;
22068;SDS011;13887;57.196;-2.100;2022-08-20T00:18:33;13.00;;;12.40;;
22068;SDS011;13887;57.196;-2.100;2022-08-20T00:21:07;12.87;;;12.20;;
22068;SDS011;13887;57.196;-2.100;2022-08-20T00:23:45;12.83;;;12.30;;
22068;SDS011;13887;57.196;-2.100;2022-08-20T00:26:15;12.80;;;12.10;;
22068;SDS011;13887;57.196;-2.100;2022-08-20T00:28:42;12.93;;;12.33;;
22068;SDS011;13887;57.196;-2.100;2022-08-20T00:31:11;12.73;;;11.93;;
22068;SDS011;13887;57.196;-2.100;2022-08-20T00:33:40;12.67;;;12.17;;
22068;SDS011;13887;57.196;-2.100;2022-08-20T00:36:07;12.30;;;11.80;;
22068;SDS011;13887;57.196;-2.100;2022-08-20T00:38:40;12.63;;;12.13;;
22068;SDS011;13887;57.196;-2.100;2022-08-20T00:41:13;12.93;;;12.33;;
22068;SDS011;13887;57.196;-2.100;2022-08-20T00:43:44;12.87;;;12.27;;
22068;SDS011;13887;57.196;-2.100;2022-08-20T00:48:57;12.57;;;12.07;;
22068;SDS011;13887;57.196;-2.100;2022-08-20T00:51:40;13.40;;;12.60;;
22068;SDS011;13887;57.196;-2.100;2022-08-20T00:56:46;12.87;;;12.37;;
22068;SDS011;13887;57.196;-2.100;2022-08-20T00:59:18;12.77;;;12.17;;
22068;SDS011;13887;57.196;-2.100;2022-08-20T01:01:48;12.67;;;12.00;;
22068;SDS011;13887;57.196;-2.100;2022-08-20T01:04:21;12.20;;;11.80;;
22068;SDS011;13887;57.196;-2.100;2022-08-20T01:06:53;12.87;;;12.17;;
22068;SDS011;13887;57.196;-2.100;2022-08-20T01:09:21;12.63;;;12.10;;
22068;SDS011;13887;57.196;-2.100;2022-08-20T01:12:09;12.40;;;11.90;;
22068;SDS011;13887;57.196;-2.100;2022-08-20T01:14:36;12.73;;;12.17;;
22068;SDS011;13887;57.196;-2.100;2022-08-20T01:17:04;12.70;;;12.10;;
22068;SDS011;13887;57.196;-2.100;2022-08-20T01:19:38;12.63;;;11.90;;
22068;SDS011;13887;57.196;-2.100;2022-08-20T01:22:09;12.63;;;11.93;;
22068;SDS011;13887;57.196;-2.100;2022-08-20T01:25:00;12.43;;;11.83;;
22068;SDS011;13887;57.196;-2.100;2022-08-20T01:27:35;13.10;;;12.40;;
22068;SDS011;13887;57.196;-2.100;2022-08-20T01:30:08;13.00;;;12.13;;
22068;SDS011;13887;57.196;-2.100;2022-08-20T01:32:35;12.37;;;11.80;;
22068;SDS011;13887;57.196;-2.100;2022-08-20T01:35:03;12.60;;;12.10;;
22068;SDS011;13887;57.196;-2.100;2022-08-20T01:37:30;12.93;;;12.13;;
22068;SDS011;13887;57.196;-2.100;2022-08-20T01:39:57;12.23;;;11.63;;
22068;SDS011;13887;57.196;-2.100;2022-08-20T01:42:29;12.33;;;11.80;;
22068;SDS011;13887;57.196;-2.100;2022-08-20T01:45:16;12.80;;;12.10;;
22068;SDS011;13887;57.196;-2.100;2022-08-20T01:47:44;12.40;;;11.70;;
22068;SDS011;13887;57.196;-2.100;2022-08-20T01:50:17;12.30;;;11.80;;
22068;SDS011;13887;57.196;-2.100;2022-08-20T01:55:30;12.47;;;11.77;;
22068;SDS011;13887;57.196;-2.100;2022-08-20T01:57:58;13.13;;;12.43;;
22068;SDS011;13887;57.196;-2.100;2022-08-20T02:00:26;12.80;;;12.10;;
22068;SDS011;13887;57.196;-2.100;2022-08-20T02:02:53;12.93;;;12.23;;
22068;SDS011;13887;57.196;-2.100;2022-08-20T02:05:21;12.83;;;12.07;;
22068;SDS011;13887;57.196;-2.100;2022-08-20T02:07:55;12.93;;;12.17;;
22068;SDS011;13887;57.196;-2.100;2022-08-20T02:10:23;12.47;;;11.97;;
22068;SDS011;13887;57.196;-2.100;2022-08-20T02:12:50;13.27;;;12.37;;
22068;SDS011;13887;57.196;-2.100;2022-08-20T02:15:19;12.37;;;11.87;;
22068;SDS011;13887;57.196;-2.100;2022-08-20T02:18:07;12.80;;;12.10;;
22068;SDS011;13887;57.196;-2.100;2022-08-20T02:20:37;12.70;;;12.03;;
22068;SDS011;13887;57.196;-2.100;2022-08-20T02:23:06;12.67;;;12.07;;
22068;SDS011;13887;57.196;-2.100;2022-08-20T02:25:34;13.90;;;12.60;;
22068;SDS011;13887;57.196;-2.100;2022-08-20T02:28:08;13.00;;;12.37;;
22068;SDS011;13887;57.196;-2.100;2022-08-20T02:30:38;13.30;;;12.50;;
22068;SDS011;13887;57.196;-2.100;2022-08-20T02:33:10;12.57;;;12.07;;
22068;SDS011;13887;57.196;-2.100;2022-08-20T02:35:39;13.27;;;12.57;;
22068;SDS011;13887;57.196;-2.100;2022-08-20T02:38:08;12.80;;;12.03;;
22068;SDS011;13887;57.196;-2.100;2022-08-20T02:40:36;12.80;;;12.20;;
22068;SDS011;13887;57.196;-2.100;2022-08-20T02:43:04;12.97;;;12.17;;
22068;SDS011;13887;57.196;-2.100;2022-08-20T02:45:31;13.00;;;12.20;;
22068;SDS011;13887;57.196;-2.100;2022-08-20T02:48:13;12.70;;;12.10;;
22068;SDS011;13887;57.196;-2.100;2022-08-20T02:50:48;13.03;;;12.30;;
22068;SDS011;13887;57.196;-2.100;2022-08-20T02:53:17;13.00;;;12.40;;
22068;SDS011;13887;57.196;-2.100;2022-08-20T02:55:45;13.40;;;12.50;;
22068;SDS011;13887;57.196;-2.100;2022-08-20T02:58:12;13.20;;;12.40;;
22068;SDS011;13887;57.196;-2.100;2022-08-20T03:00:39;12.97;;;12.23;;
22068;SDS011;13887;57.196;-2.100;2022-08-20T03:03:07;13.53;;;12.33;;
22068;SDS011;13887;57.196;-2.100;2022-08-20T03:05:36;13.00;;;12.33;;
22068;SDS011;13887;57.196;-2.100;2022-08-20T03:08:06;12.60;;;12.00;;
22068;SDS011;13887;57.196;-2.100;2022-08-20T03:10:34;13.10;;;12.23;;
22068;SDS011;13887;57.196;-2.100;2022-08-20T03:13:03;13.17;;;12.37;;
22068;SDS011;13887;57.196;-2.100;2022-08-20T03:15:31;12.73;;;12.03;;
22068;SDS011;13887;57.196;-2.100;2022-08-20T03:17:59;13.13;;;12.10;;
22068;SDS011;13887;57.196;-2.100;2022-08-20T03:20:26;12.90;;;12.20;;
22068;SDS011;13887;57.196;-2.100;2022-08-20T03:22:54;13.23;;;12.40;;
22068;SDS011;13887;57.196;-2.100;2022-08-20T03:25:21;13.07;;;12.27;;
22068;SDS011;13887;57.196;-2.100;2022-08-20T03:27:52;12.63;;;11.97;;
22068;SDS011;13887;57.196;-2.100;2022-08-20T03:30:20;13.00;;;12.27;;
22068;SDS011;13887;57.196;-2.100;2022-08-20T03:32:51;13.30;;;12.60;;
22068;SDS011;13887;57.196;-2.100;2022-08-20T03:35:19;13.50;;;12.70;;
22068;SDS011;13887;57.196;-2.100;2022-08-20T03:37:48;13.43;;;12.63;;
22068;SDS011;13887;57.196;-2.100;2022-08-20T03:40:17;13.60;;;12.80;;
22068;SDS011;13887;57.196;-2.100;2022-08-20T03:42:47;13.70;;;12.90;;
22068;SDS011;13887;57.196;-2.100;2022-08-20T03:45:14;13.37;;;12.47;;
22068;SDS011;13887;57.196;-2.100;2022-08-20T03:47:46;13.53;;;12.63;;
22068;SDS011;13887;57.196;-2.100;2022-08-20T03:50:13;13.93;;;13.07;;
22068;SDS011;13887;57.196;-2.100;2022-08-20T03:52:50;13.27;;;12.40;;
22068;SDS011;13887;57.196;-2.100;2022-08-20T03:55:17;12.90;;;12.20;;
22068;SDS011;13887;57.196;-2.100;2022-08-20T03:57:46;13.03;;;12.23;;
22068;SDS011;13887;57.196;-2.100;2022-08-20T04:00:25;12.43;;;11.77;;
22068;SDS011;13887;57.196;-2.100;2022-08-20T04:02:58;13.70;;;12.63;;
22068;SDS011;13887;57.196;-2.100;2022-08-20T04:05:26;12.63;;;11.87;;
22068;SDS011;13887;57.196;-2.100;2022-08-20T04:07:56;12.73;;;11.83;;
22068;SDS011;13887;57.196;-2.100;2022-08-20T04:10:28;12.40;;;11.47;;
22068;SDS011;13887;57.196;-2.100;2022-08-20T04:12:56;12.43;;;11.77;;
22068;SDS011;13887;57.196;-2.100;2022-08-20T04:15:24;13.43;;;12.63;;
22068;SDS011;13887;57.196;-2.100;2022-08-20T04:17:52;12.80;;;11.87;;
22068;SDS011;13887;57.196;-2.100;2022-08-20T04:20:20;12.37;;;11.60;;
22068;SDS011;13887;57.196;-2.100;2022-08-20T04:22:49;12.57;;;11.77;;
22068;SDS011;13887;57.196;-2.100;2022-08-20T04:25:28;12.37;;;11.67;;
22068;SDS011;13887;57.196;-2.100;2022-08-20T04:28:02;12.03;;;11.43;;
22068;SDS011;13887;57.196;-2.100;2022-08-20T04:30:31;13.13;;;12.30;;
22068;SDS011;13887;57.196;-2.100;2022-08-20T04:32:58;13.30;;;12.33;;
22068;SDS011;13887;57.196;-2.100;2022-08-20T04:35:27;13.03;;;12.23;;
22068;SDS011;13887;57.196;-2.100;2022-08-20T04:38:08;13.53;;;12.63;;
22068;SDS011;13887;57.196;-2.100;2022-08-20T04:40:39;14.13;;;12.87;;
22068;SDS011;13887;57.196;-2.100;2022-08-20T04:43:25;12.77;;;12.03;;
22068;SDS011;13887;57.196;-2.100;2022-08-20T04:45:56;13.17;;;12.47;;
22068;SDS011;13887;57.196;-2.100;2022-08-20T04:48:24;14.10;;;13.20;;
22068;SDS011;13887;57.196;-2.100;2022-08-20T04:50:55;14.20;;;13.00;;
22068;SDS011;13887;57.196;-2.100;2022-08-20T04:53:25;14.17;;;13.17;;
22068;SDS011;13887;57.196;-2.100;2022-08-20T04:55:54;13.60;;;12.73;;
22068;SDS011;13887;57.196;-2.100;2022-08-20T04:58:29;13.50;;;12.73;;
22068;SDS011;13887;57.196;-2.100;2022-08-20T05:01:00;13.63;;;12.50;;
22068;SDS011;13887;57.196;-2.100;2022-08-20T05:03:32;14.33;;;13.23;;
22068;SDS011;13887;57.196;-2.100;2022-08-20T05:05:59;13.53;;;12.70;;
22068;SDS011;13887;57.196;-2.100;2022-08-20T05:08:27;15.00;;;13.67;;
22068;SDS011;13887;57.196;-2.100;2022-08-20T05:10:55;13.43;;;12.60;;
22068;SDS011;13887;57.196;-2.100;2022-08-20T05:13:43;13.43;;;12.50;;
22068;SDS011;13887;57.196;-2.100;2022-08-20T05:16:12;13.10;;;12.50;;
22068;SDS011;13887;57.196;-2.100;2022-08-20T05:18:40;14.27;;;13.00;;
22068;SDS011;13887;57.196;-2.100;2022-08-20T05:21:08;13.57;;;12.67;;
22068;SDS011;13887;57.196;-2.100;2022-08-20T05:23:36;14.37;;;13.33;;
22068;SDS011;13887;57.196;-2.100;2022-08-20T05:26:09;14.07;;;12.73;;
22068;SDS011;13887;57.196;-2.100;2022-08-20T05:28:38;14.30;;;13.20;;
22068;SDS011;13887;57.196;-2.100;2022-08-20T05:31:23;13.77;;;12.83;;
22068;SDS011;13887;57.196;-2.100;2022-08-20T05:33:58;14.27;;;13.37;;
22068;SDS011;13887;57.196;-2.100;2022-08-20T05:36:40;13.50;;;12.73;;
22068;SDS011;13887;57.196;-2.100;2022-08-20T05:39:15;13.47;;;12.57;;
22068;SDS011;13887;57.196;-2.100;2022-08-20T05:41:43;13.83;;;12.97;;
22068;SDS011;13887;57.196;-2.100;2022-08-20T05:44:10;14.33;;;13.20;;
22068;SDS011;13887;57.196;-2.100;2022-08-20T05:46:41;13.43;;;12.57;;
22068;SDS011;13887;57.196;-2.100;2022-08-20T05:49:10;14.50;;;13.30;;
22068;SDS011;13887;57.196;-2.100;2022-08-20T05:51:39;14.00;;;12.90;;
22068;SDS011;13887;57.196;-2.100;2022-08-20T05:54:06;13.83;;;12.97;;
22068;SDS011;13887;57.196;-2.100;2022-08-20T05:56:34;14.73;;;12.30;;
22068;SDS011;13887;57.196;-2.100;2022-08-20T05:59:03;13.33;;;12.27;;
22068;SDS011;13887;57.196;-2.100;2022-08-20T06:01:32;14.67;;;13.33;;
22068;SDS011;13887;57.196;-2.100;2022-08-20T06:04:00;14.03;;;13.03;;
22068;SDS011;13887;57.196;-2.100;2022-08-20T06:06:47;13.77;;;12.90;;
22068;SDS011;13887;57.196;-2.100;2022-08-20T06:09:21;12.93;;;12.27;;
22068;SDS011;13887;57.196;-2.100;2022-08-20T06:11:58;14.37;;;13.20;;
22068;SDS011;13887;57.196;-2.100;2022-08-20T06:14:26;13.67;;;12.87;;
22068;SDS011;13887;57.196;-2.100;2022-08-20T06:16:53;14.10;;;13.00;;
22068;SDS011;13887;57.196;-2.100;2022-08-20T06:19:25;13.73;;;12.60;;
22068;SDS011;13887;57.196;-2.100;2022-08-20T06:21:57;13.40;;;12.70;;
22068;SDS011;13887;57.196;-2.100;2022-08-20T06:24:25;14.20;;;13.27;;
22068;SDS011;13887;57.196;-2.100;2022-08-20T06:26:55;14.63;;;13.63;;
22068;SDS011;13887;57.196;-2.100;2022-08-20T06:29:24;14.57;;;13.27;;
22068;SDS011;13887;57.196;-2.100;2022-08-20T06:31:51;14.17;;;12.97;;
22068;SDS011;13887;57.196;-2.100;2022-08-20T06:34:18;14.83;;;13.80;;
22068;SDS011;13887;57.196;-2.100;2022-08-20T06:36:45;14.40;;;12.97;;
22068;SDS011;13887;57.196;-2.100;2022-08-20T06:39:13;14.00;;;13.10;;
22068;SDS011;13887;57.196;-2.100;2022-08-20T06:41:41;14.03;;;12.93;;
22068;SDS011;13887;57.196;-2.100;2022-08-20T06:44:08;13.97;;;12.83;;
22068;SDS011;13887;57.196;-2.100;2022-08-20T06:46:36;13.97;;;12.97;;
22068;SDS011;13887;57.196;-2.100;2022-08-20T06:49:03;13.97;;;13.17;;
22068;SDS011;13887;57.196;-2.100;2022-08-20T06:51:32;13.73;;;12.83;;
22068;SDS011;13887;57.196;-2.100;2022-08-20T06:53:59;13.87;;;12.97;;
22068;SDS011;13887;57.196;-2.100;2022-08-20T06:56:26;13.90;;;13.00;;
22068;SDS011;13887;57.196;-2.100;2022-08-20T06:58:53;14.20;;;13.10;;
22068;SDS011;13887;57.196;-2.100;2022-08-20T07:01:20;14.10;;;13.20;;
22068;SDS011;13887;57.196;-2.100;2022-08-20T07:03:48;14.23;;;13.13;;
22068;SDS011;13887;57.196;-2.100;2022-08-20T07:06:20;14.43;;;13.23;;
22068;SDS011;13887;57.196;-2.100;2022-08-20T07:08:47;13.60;;;12.80;;
22068;SDS011;13887;57.196;-2.100;2022-08-20T07:11:14;13.83;;;13.00;;
22068;SDS011;13887;57.196;-2.100;2022-08-20T07:13:41;14.33;;;13.20;;
22068;SDS011;13887;57.196;-2.100;2022-08-20T07:16:08;14.50;;;13.50;;
22068;SDS011;13887;57.196;-2.100;2022-08-20T07:18:35;14.80;;;13.30;;
22068;SDS011;13887;57.196;-2.100;2022-08-20T07:21:02;13.10;;;12.17;;
22068;SDS011;13887;57.196;-2.100;2022-08-20T07:23:29;14.17;;;12.83;;
22068;SDS011;13887;57.196;-2.100;2022-08-20T07:25:57;14.47;;;13.40;;
22068;SDS011;13887;57.196;-2.100;2022-08-20T07:28:24;14.53;;;13.47;;
22068;SDS011;13887;57.196;-2.100;2022-08-20T07:30:54;13.03;;;12.17;;
22068;SDS011;13887;57.196;-2.100;2022-08-20T07:33:41;13.20;;;12.23;;
22068;SDS011;13887;57.196;-2.100;2022-08-20T07:36:10;14.43;;;13.00;;
22068;SDS011;13887;57.196;-2.100;2022-08-20T07:38:38;13.57;;;12.53;;
22068;SDS011;13887;57.196;-2.100;2022-08-20T07:41:06;14.17;;;12.63;;
22068;SDS011;13887;57.196;-2.100;2022-08-20T07:43:35;13.97;;;12.87;;
22068;SDS011;13887;57.196;-2.100;2022-08-20T07:46:03;13.47;;;12.57;;
22068;SDS011;13887;57.196;-2.100;2022-08-20T07:48:39;13.27;;;12.47;;
22068;SDS011;13887;57.196;-2.100;2022-08-20T07:51:08;12.97;;;12.23;;
22068;SDS011;13887;57.196;-2.100;2022-08-20T07:53:36;13.67;;;12.50;;
22068;SDS011;13887;57.196;-2.100;2022-08-20T07:56:05;13.60;;;12.70;;
22068;SDS011;13887;57.196;-2.100;2022-08-20T07:58:40;13.13;;;12.27;;
22068;SDS011;13887;57.196;-2.100;2022-08-20T08:01:09;13.40;;;12.30;;
22068;SDS011;13887;57.196;-2.100;2022-08-20T08:03:37;13.47;;;12.60;;
22068;SDS011;13887;57.196;-2.100;2022-08-20T08:06:19;14.23;;;12.93;;
22068;SDS011;13887;57.196;-2.100;2022-08-20T08:09:12;14.53;;;13.43;;
22068;SDS011;13887;57.196;-2.100;2022-08-20T08:11:40;13.87;;;12.97;;
22068;SDS011;13887;57.196;-2.100;2022-08-20T08:14:13;14.30;;;13.13;;
22068;SDS011;13887;57.196;-2.100;2022-08-20T08:16:42;14.03;;;12.90;;
22068;SDS011;13887;57.196;-2.100;2022-08-20T08:19:11;14.50;;;13.20;;
22068;SDS011;13887;57.196;-2.100;2022-08-20T08:21:41;13.13;;;12.33;;
22068;SDS011;13887;57.196;-2.100;2022-08-20T08:24:09;13.40;;;12.47;;
22068;SDS011;13887;57.196;-2.100;2022-08-20T08:26:42;13.97;;;12.90;;
22068;SDS011;13887;57.196;-2.100;2022-08-20T08:29:09;13.33;;;12.53;;
22068;SDS011;13887;57.196;-2.100;2022-08-20T08:31:37;14.10;;;12.90;;
22068;SDS011;13887;57.196;-2.100;2022-08-20T08:34:06;14.27;;;13.07;;
22068;SDS011;13887;57.196;-2.100;2022-08-20T08:36:33;12.83;;;12.07;;
22068;SDS011;13887;57.196;-2.100;2022-08-20T08:39:00;13.80;;;12.50;;
22068;SDS011;13887;57.196;-2.100;2022-08-20T08:41:31;12.97;;;11.80;;
22068;SDS011;13887;57.196;-2.100;2022-08-20T08:44:10;13.57;;;12.67;;
22068;SDS011;13887;57.196;-2.100;2022-08-20T08:47:02;14.17;;;12.83;;
22068;SDS011;13887;57.196;-2.100;2022-08-20T08:49:39;13.27;;;12.47;;
22068;SDS011;13887;57.196;-2.100;2022-08-20T08:52:08;13.53;;;12.33;;
22068;SDS011;13887;57.196;-2.100;2022-08-20T08:54:45;13.40;;;12.60;;
22068;SDS011;13887;57.196;-2.100;2022-08-20T08:57:14;14.40;;;13.20;;
22068;SDS011;13887;57.196;-2.100;2022-08-20T08:59:43;13.53;;;12.53;;
22068;SDS011;13887;57.196;-2.100;2022-08-20T09:02:30;12.70;;;11.90;;
22068;SDS011;13887;57.196;-2.100;2022-08-20T09:04:59;12.70;;;11.80;;
22068;SDS011;13887;57.196;-2.100;2022-08-20T09:07:30;12.80;;;11.90;;
22068;SDS011;13887;57.196;-2.100;2022-08-20T09:09:59;12.30;;;11.70;;
22068;SDS011;13887;57.196;-2.100;2022-08-20T09:12:27;12.37;;;11.77;;
22068;SDS011;13887;57.196;-2.100;2022-08-20T09:14:54;13.10;;;12.13;;
22068;SDS011;13887;57.196;-2.100;2022-08-20T09:17:21;13.10;;;12.40;;
22068;SDS011;13887;57.196;-2.100;2022-08-20T09:19:49;11.90;;;11.30;;
22068;SDS011;13887;57.196;-2.100;2022-08-20T09:22:19;12.13;;;11.53;;
22068;SDS011;13887;57.196;-2.100;2022-08-20T09:24:48;12.27;;;11.43;;
22068;SDS011;13887;57.196;-2.100;2022-08-20T09:27:15;11.83;;;11.23;;
22068;SDS011;13887;57.196;-2.100;2022-08-20T09:29:42;11.60;;;10.80;;
22068;SDS011;13887;57.196;-2.100;2022-08-20T09:32:12;11.80;;;11.13;;
22068;SDS011;13887;57.196;-2.100;2022-08-20T09:34:44;12.30;;;11.80;;
22068;SDS011;13887;57.196;-2.100;2022-08-20T09:37:13;11.97;;;11.40;;
22068;SDS011;13887;57.196;-2.100;2022-08-20T09:39:41;12.00;;;11.47;;
22068;SDS011;13887;57.196;-2.100;2022-08-20T09:42:09;12.80;;;12.10;;
22068;SDS011;13887;57.196;-2.100;2022-08-20T09:44:39;12.77;;;12.20;;
22068;SDS011;13887;57.196;-2.100;2022-08-20T09:47:06;12.07;;;11.27;;
22068;SDS011;13887;57.196;-2.100;2022-08-20T09:49:33;12.13;;;11.57;;
22068;SDS011;13887;57.196;-2.100;2022-08-20T09:52:03;11.80;;;11.30;;
22068;SDS011;13887;57.196;-2.100;2022-08-20T09:54:32;11.57;;;11.13;;
22068;SDS011;13887;57.196;-2.100;2022-08-20T09:57:01;12.20;;;11.60;;
22068;SDS011;13887;57.196;-2.100;2022-08-20T09:59:30;13.13;;;12.57;;
22068;SDS011;13887;57.196;-2.100;2022-08-20T10:01:59;13.97;;;13.27;;
22068;SDS011;13887;57.196;-2.100;2022-08-20T10:04:26;13.00;;;12.30;;
22068;SDS011;13887;57.196;-2.100;2022-08-20T10:06:54;13.47;;;12.67;;
22068;SDS011;13887;57.196;-2.100;2022-08-20T10:09:22;11.97;;;11.37;;
22068;SDS011;13887;57.196;-2.100;2022-08-20T10:11:49;12.10;;;11.50;;
22068;SDS011;13887;57.196;-2.100;2022-08-20T10:14:16;11.93;;;11.43;;
22068;SDS011;13887;57.196;-2.100;2022-08-20T10:16:43;11.33;;;10.93;;
22068;SDS011;13887;57.196;-2.100;2022-08-20T10:19:10;11.20;;;10.70;;
22068;SDS011;13887;57.196;-2.100;2022-08-20T10:21:37;11.23;;;10.73;;
22068;SDS011;13887;57.196;-2.100;2022-08-20T10:24:04;11.70;;;11.30;;
22068;SDS011;13887;57.196;-2.100;2022-08-20T10:26:31;11.83;;;11.43;;
22068;SDS011;13887;57.196;-2.100;2022-08-20T10:28:58;12.43;;;11.93;;
22068;SDS011;13887;57.196;-2.100;2022-08-20T10:31:25;11.47;;;11.07;;
22068;SDS011;13887;57.196;-2.100;2022-08-20T10:33:52;11.97;;;11.57;;
22068;SDS011;13887;57.196;-2.100;2022-08-20T10:36:19;11.10;;;10.70;;
22068;SDS011;13887;57.196;-2.100;2022-08-20T10:38:46;11.37;;;10.97;;
22068;SDS011;13887;57.196;-2.100;2022-08-20T10:41:14;11.80;;;11.33;;
22068;SDS011;13887;57.196;-2.100;2022-08-20T10:43:41;11.80;;;11.40;;
22068;SDS011;13887;57.196;-2.100;2022-08-20T10:46:08;11.50;;;11.10;;
22068;SDS011;13887;57.196;-2.100;2022-08-20T10:48:35;11.77;;;11.27;;
22068;SDS011;13887;57.196;-2.100;2022-08-20T10:51:03;11.90;;;11.40;;
22068;SDS011;13887;57.196;-2.100;2022-08-20T10:53:30;11.70;;;11.30;;
22068;SDS011;13887;57.196;-2.100;2022-08-20T10:55:57;11.60;;;11.20;;
22068;SDS011;13887;57.196;-2.100;2022-08-20T10:58:25;12.40;;;11.87;;
22068;SDS011;13887;57.196;-2.100;2022-08-20T11:01:03;11.90;;;11.40;;
22068;SDS011;13887;57.196;-2.100;2022-08-20T11:03:30;11.07;;;10.67;;
22068;SDS011;13887;57.196;-2.100;2022-08-20T11:05:57;12.43;;;11.93;;
22068;SDS011;13887;57.196;-2.100;2022-08-20T11:08:24;11.47;;;11.07;;
22068;SDS011;13887;57.196;-2.100;2022-08-20T11:11:01;12.37;;;11.77;;
22068;SDS011;13887;57.196;-2.100;2022-08-20T11:13:29;10.80;;;10.30;;
22068;SDS011;13887;57.196;-2.100;2022-08-20T11:15:57;11.63;;;11.13;;
22068;SDS011;13887;57.196;-2.100;2022-08-20T11:18:24;11.07;;;10.63;;
22068;SDS011;13887;57.196;-2.100;2022-08-20T11:20:51;11.93;;;11.43;;
22068;SDS011;13887;57.196;-2.100;2022-08-20T11:23:18;11.40;;;10.80;;
22068;SDS011;13887;57.196;-2.100;2022-08-20T11:25:45;11.57;;;11.07;;
22068;SDS011;13887;57.196;-2.100;2022-08-20T11:28:13;10.93;;;10.33;;
22068;SDS011;13887;57.196;-2.100;2022-08-20T11:30:40;11.40;;;10.90;;
22068;SDS011;13887;57.196;-2.100;2022-08-20T11:33:07;11.63;;;11.03;;
22068;SDS011;13887;57.196;-2.100;2022-08-20T11:35:34;11.77;;;11.27;;
22068;SDS011;13887;57.196;-2.100;2022-08-20T11:38:15;11.90;;;11.30;;
22068;SDS011;13887;57.196;-2.100;2022-08-20T11:40:43;12.60;;;11.80;;
22068;SDS011;13887;57.196;-2.100;2022-08-20T11:43:12;12.20;;;11.70;;
22068;SDS011;13887;57.196;-2.100;2022-08-20T11:45:43;11.87;;;11.37;;
22068;SDS011;13887;57.196;-2.100;2022-08-20T11:48:12;12.20;;;11.70;;
22068;SDS011;13887;57.196;-2.100;2022-08-20T11:50:39;11.83;;;11.40;;
22068;SDS011;13887;57.196;-2.100;2022-08-20T11:53:06;11.73;;;11.23;;
22068;SDS011;13887;57.196;-2.100;2022-08-20T11:55:33;12.30;;;11.67;;
22068;SDS011;13887;57.196;-2.100;2022-08-20T11:58:00;12.17;;;11.47;;
22068;SDS011;13887;57.196;-2.100;2022-08-20T12:00:29;12.17;;;11.50;;
22068;SDS011;13887;57.196;-2.100;2022-08-20T12:02:59;11.70;;;11.20;;
22068;SDS011;13887;57.196;-2.100;2022-08-20T12:05:31;12.20;;;11.70;;
22068;SDS011;13887;57.196;-2.100;2022-08-20T12:08:02;12.10;;;11.50;;
22068;SDS011;13887;57.196;-2.100;2022-08-20T12:10:29;12.10;;;11.40;;
22068;SDS011;13887;57.196;-2.100;2022-08-20T12:12:57;11.77;;;11.20;;
22068;SDS011;13887;57.196;-2.100;2022-08-20T12:15:24;11.87;;;11.27;;
22068;SDS011;13887;57.196;-2.100;2022-08-20T12:17:53;11.43;;;10.93;;
22068;SDS011;13887;57.196;-2.100;2022-08-20T12:20:20;11.90;;;11.40;;
22068;SDS011;13887;57.196;-2.100;2022-08-20T12:22:48;12.77;;;12.27;;
22068;SDS011;13887;57.196;-2.100;2022-08-20T12:25:16;12.27;;;11.77;;
22068;SDS011;13887;57.196;-2.100;2022-08-20T12:27:44;12.70;;;12.07;;
22068;SDS011;13887;57.196;-2.100;2022-08-20T12:30:13;12.43;;;11.73;;
22068;SDS011;13887;57.196;-2.100;2022-08-20T12:32:42;12.20;;;11.70;;
22068;SDS011;13887;57.196;-2.100;2022-08-20T12:35:10;12.37;;;11.87;;
22068;SDS011;13887;57.196;-2.100;2022-08-20T12:37:38;12.37;;;11.87;;
22068;SDS011;13887;57.196;-2.100;2022-08-20T12:40:08;11.90;;;11.40;;
22068;SDS011;13887;57.196;-2.100;2022-08-20T12:42:38;11.73;;;11.20;;
22068;SDS011;13887;57.196;-2.100;2022-08-20T12:45:05;12.37;;;11.57;;
22068;SDS011;13887;57.196;-2.100;2022-08-20T12:47:34;11.80;;;11.20;;
22068;SDS011;13887;57.196;-2.100;2022-08-20T12:50:05;12.03;;;11.50;;
22068;SDS011;13887;57.196;-2.100;2022-08-20T12:52:35;11.40;;;10.90;;
22068;SDS011;13887;57.196;-2.100;2022-08-20T12:55:03;12.07;;;11.47;;
22068;SDS011;13887;57.196;-2.100;2022-08-20T12:57:45;11.60;;;11.10;;
22068;SDS011;13887;57.196;-2.100;2022-08-20T13:03:09;11.40;;;10.90;;
22068;SDS011;13887;57.196;-2.100;2022-08-20T13:05:37;11.97;;;11.43;;
22068;SDS011;13887;57.196;-2.100;2022-08-20T13:08:08;11.90;;;11.40;;
22068;SDS011;13887;57.196;-2.100;2022-08-20T13:10:38;12.50;;;11.77;;
22068;SDS011;13887;57.196;-2.100;2022-08-20T13:13:13;12.03;;;11.33;;
22068;SDS011;13887;57.196;-2.100;2022-08-20T13:15:45;11.40;;;10.97;;
22068;SDS011;13887;57.196;-2.100;2022-08-20T13:18:12;12.07;;;11.57;;
22068;SDS011;13887;57.196;-2.100;2022-08-20T13:20:39;12.07;;;11.37;;
22068;SDS011;13887;57.196;-2.100;2022-08-20T13:23:06;12.33;;;11.70;;
22068;SDS011;13887;57.196;-2.100;2022-08-20T13:25:33;11.50;;;11.10;;
22068;SDS011;13887;57.196;-2.100;2022-08-20T13:28:01;11.70;;;11.10;;
22068;SDS011;13887;57.196;-2.100;2022-08-20T13:30:30;12.07;;;11.30;;
22068;SDS011;13887;57.196;-2.100;2022-08-20T13:33:00;12.40;;;11.90;;
22068;SDS011;13887;57.196;-2.100;2022-08-20T13:35:27;12.27;;;11.67;;
22068;SDS011;13887;57.196;-2.100;2022-08-20T13:37:54;12.17;;;11.50;;
22068;SDS011;13887;57.196;-2.100;2022-08-20T13:40:21;12.50;;;11.90;;
22068;SDS011;13887;57.196;-2.100;2022-08-20T13:42:48;12.60;;;12.00;;
22068;SDS011;13887;57.196;-2.100;2022-08-20T13:45:15;12.40;;;11.90;;
22068;SDS011;13887;57.196;-2.100;2022-08-20T13:47:42;12.83;;;12.20;;
22068;SDS011;13887;57.196;-2.100;2022-08-20T13:50:11;12.20;;;11.60;;
22068;SDS011;13887;57.196;-2.100;2022-08-20T13:52:40;13.03;;;12.43;;
22068;SDS011;13887;57.196;-2.100;2022-08-20T13:55:09;13.10;;;12.20;;
22068;SDS011;13887;57.196;-2.100;2022-08-20T13:57:38;12.70;;;11.83;;
22068;SDS011;13887;57.196;-2.100;2022-08-20T14:00:07;12.53;;;11.93;;
22068;SDS011;13887;57.196;-2.100;2022-08-20T14:02:38;12.23;;;11.70;;
22068;SDS011;13887;57.196;-2.100;2022-08-20T14:05:06;11.60;;;11.10;;
22068;SDS011;13887;57.196;-2.100;2022-08-20T14:07:35;12.13;;;11.53;;
22068;SDS011;13887;57.196;-2.100;2022-08-20T14:10:04;11.70;;;11.20;;
22068;SDS011;13887;57.196;-2.100;2022-08-20T14:12:35;12.50;;;11.90;;
22068;SDS011;13887;57.196;-2.100;2022-08-20T14:15:02;11.93;;;11.37;;
22068;SDS011;13887;57.196;-2.100;2022-08-20T14:17:31;11.70;;;11.20;;
22068;SDS011;13887;57.196;-2.100;2022-08-20T14:20:04;12.60;;;12.00;;
22068;SDS011;13887;57.196;-2.100;2022-08-20T14:22:36;12.17;;;11.67;;
22068;SDS011;13887;57.196;-2.100;2022-08-20T14:25:06;12.57;;;11.87;;
22068;SDS011;13887;57.196;-2.100;2022-08-20T14:27:35;12.83;;;12.17;;
22068;SDS011;13887;57.196;-2.100;2022-08-20T14:30:07;12.43;;;11.93;;
22068;SDS011;13887;57.196;-2.100;2022-08-20T14:32:36;12.00;;;11.50;;
22068;SDS011;13887;57.196;-2.100;2022-08-20T14:35:04;12.33;;;11.73;;